Time;durP1;ratioP1;P1;durP2;ratioP2;P2;SDS_P1;SDS_P2;PMS_P1;PMS_P2;Temp;Humidity;BMP_temperature;BMP_pressure;BME280_temperature;BME280_humidity;BME280_pressure;Samples;Min_cycle;Max_cycle;Signal;HPM_P1;HPM_P2
2021/05/25 00:01:33;;;;;;;;;;;12.90;83.20;;;;;;5051960;28;19924;-66
2021/05/25 00:03:59;;;;;;;;;;;13.00;83.30;;;;;;5032465;28;19916;-64
2021/05/25 00:06:24;;;;;;;;;;;13.00;83.20;;;;;;5050930;28;19917;-64
2021/05/25 00:08:50;;;;;;;;;;;12.90;83.00;;;;;;5051961;28;20542;-65
2021/05/25 00:11:16;;;;;;;;;;;12.90;83.10;;;;;;5050964;28;19924;-67
2021/05/25 00:13:41;;;;;;;;;;;12.90;83.30;;;;;;5052024;28;19917;-74
2021/05/25 00:16:07;;;;;;;;;;;12.80;83.20;;;;;;5068429;28;19917;-65
2021/05/25 00:18:32;;;;;;;;;;;12.70;83.30;;;;;;5053278;28;20405;-68
2021/05/25 00:20:58;;;;;;;;;;;12.70;83.80;;;;;;5053529;28;19917;-67
2021/05/25 00:23:24;;;;;;;;;;;12.70;83.80;;;;;;5052422;28;20332;-68
2021/05/25 00:25:51;;;;;;;;;;;12.70;84.30;;;;;;5068632;28;19917;-64
2021/05/25 00:28:17;;;;;;;;;;;12.70;83.90;;;;;;5053252;28;20000;-69
2021/05/25 00:30:43;;;;;;;;;;;12.60;83.80;;;;;;5052926;28;19955;-68
2021/05/25 00:33:08;;;;;;;;;;;12.60;83.90;;;;;;5052987;28;19917;-65
2021/05/25 00:35:39;;;;;;;;;;;12.60;84.00;;;;;;5067874;28;19917;-68
2021/05/25 00:38:04;;;;;;;;;;;12.50;84.20;;;;;;5051676;28;20000;-65
2021/05/25 00:40:30;;;;;;;;;;;12.50;84.30;;;;;;5052202;28;20004;-64
2021/05/25 00:42:56;;;;;;;;;;;12.40;84.50;;;;;;5050569;28;20369;-64
2021/05/25 00:45:21;;;;;;;;;;;12.40;84.70;;;;;;5050441;28;20289;-64
2021/05/25 00:47:47;;;;;;;;;;;12.30;84.80;;;;;;5033609;28;19917;-64
2021/05/25 00:50:23;;;;;;;;;;;12.40;85.10;;;;;;5051351;28;19939;-64
2021/05/25 00:52:50;;;;;;;;;;;12.30;85.20;;;;;;5049978;28;20432;-64
2021/05/25 00:55:26;;;;;;;;;;;12.30;85.30;;;;;;5050906;28;19929;-64
2021/05/25 00:57:52;;;;;;;;;;;12.40;85.40;;;;;;5050196;28;19917;-64
2021/05/25 01:00:21;;;;;;;;;;;12.40;85.60;;;;;;5051002;28;19994;-64
2021/05/25 01:02:46;;;;;;;;;;;12.40;85.60;;;;;;5049910;28;19917;-64
2021/05/25 01:05:13;;;;;;;;;;;12.30;85.50;;;;;;5050740;28;20374;-64
2021/05/25 01:07:39;;;;;;;;;;;12.40;85.80;;;;;;5051620;28;19920;-64
2021/05/25 01:10:06;;;;;;;;;;;12.40;85.70;;;;;;5035345;28;19921;-66
2021/05/25 01:12:34;;;;;;;;;;;12.40;85.70;;;;;;5052395;28;19921;-64
2021/05/25 01:15:04;;;;;;;;;;;12.40;85.70;;;;;;5053533;28;19923;-64
2021/05/25 01:17:31;;;;;;;;;;;12.50;85.90;;;;;;5055363;28;20348;-64
2021/05/25 01:19:57;;;;;;;;;;;12.50;85.80;;;;;;5072061;28;20407;-64
2021/05/25 01:22:23;;;;;;;;;;;12.50;85.80;;;;;;5071838;28;19970;-67
2021/05/25 01:24:49;;;;;;;;;;;12.50;85.90;;;;;;5054246;28;20380;-64
2021/05/25 01:27:14;;;;;;;;;;;12.50;85.60;;;;;;5054928;28;19917;-64
2021/05/25 01:29:40;;;;;;;;;;;12.50;85.60;;;;;;5070276;28;19963;-64
2021/05/25 01:32:05;;;;;;;;;;;12.50;85.80;;;;;;5053338;28;19916;-64
2021/05/25 01:34:31;;;;;;;;;;;12.50;86.00;;;;;;5054324;28;20003;-64
2021/05/25 01:36:57;;;;;;;;;;;12.50;86.20;;;;;;5054465;28;20327;-64
2021/05/25 01:39:22;;;;;;;;;;;12.50;86.10;;;;;;5054545;28;20439;-64
2021/05/25 01:41:54;;;;;;;;;;;12.50;86.10;;;;;;5053462;28;19919;-64
2021/05/25 01:44:20;;;;;;;;;;;12.40;86.00;;;;;;5053777;28;19924;-64
2021/05/25 01:46:46;;;;;;;;;;;12.40;86.10;;;;;;5053226;28;19921;-64
2021/05/25 01:49:16;;;;;;;;;;;12.40;86.00;;;;;;5052959;28;19932;-64
2021/05/25 01:51:45;;;;;;;;;;;12.40;86.30;;;;;;5036711;28;19921;-64
2021/05/25 01:54:11;;;;;;;;;;;12.40;86.30;;;;;;5035695;28;20008;-64
2021/05/25 01:56:36;;;;;;;;;;;12.40;86.30;;;;;;5054271;28;19944;-64
2021/05/25 01:59:02;;;;;;;;;;;12.40;86.30;;;;;;5053147;28;19920;-64
2021/05/25 02:01:27;;;;;;;;;;;12.40;86.40;;;;;;5052728;28;19963;-65
2021/05/25 02:03:53;;;;;;;;;;;12.30;86.40;;;;;;5069163;28;20324;-64
2021/05/25 02:06:19;;;;;;;;;;;12.20;86.40;;;;;;5054416;28;20458;-64
2021/05/25 02:08:44;;;;;;;;;;;12.20;86.60;;;;;;5053918;28;19945;-64
2021/05/25 02:11:10;;;;;;;;;;;12.20;86.80;;;;;;5054314;28;20392;-64
2021/05/25 02:13:37;;;;;;;;;;;12.20;87.00;;;;;;5068405;28;19925;-64
2021/05/25 02:16:04;;;;;;;;;;;12.20;87.10;;;;;;5053964;28;19917;-64
2021/05/25 02:18:31;;;;;;;;;;;12.20;87.10;;;;;;5069271;28;19959;-64
2021/05/25 02:20:58;;;;;;;;;;;12.20;87.20;;;;;;5053674;28;20400;-64
2021/05/25 02:23:23;;;;;;;;;;;12.20;87.20;;;;;;5053433;28;19917;-64
2021/05/25 02:25:49;;;;;;;;;;;12.20;87.40;;;;;;5051964;28;19920;-64
2021/05/25 02:28:15;;;;;;;;;;;12.20;87.40;;;;;;5053945;28;19931;-64
2021/05/25 02:30:41;;;;;;;;;;;12.20;87.30;;;;;;5035923;28;19917;-64
2021/05/25 02:33:08;;;;;;;;;;;12.20;87.40;;;;;;5052830;28;19923;-64
2021/05/25 02:35:34;;;;;;;;;;;12.20;87.70;;;;;;5053608;28;19917;-64
2021/05/25 02:38:00;;;;;;;;;;;12.20;87.70;;;;;;5053240;28;19931;-65
2021/05/25 02:40:26;;;;;;;;;;;12.20;87.70;;;;;;5035518;28;19925;-64
2021/05/25 02:42:52;;;;;;;;;;;12.20;87.80;;;;;;5035364;28;19923;-63
2021/05/25 02:45:17;;;;;;;;;;;12.20;87.70;;;;;;5035065;28;19917;-64
2021/05/25 02:47:43;;;;;;;;;;;12.20;87.70;;;;;;5068702;28;19959;-64
2021/05/25 02:50:09;;;;;;;;;;;12.20;87.80;;;;;;5053507;28;19963;-64
2021/05/25 02:52:35;;;;;;;;;;;12.20;87.60;;;;;;5052931;28;20293;-64
2021/05/25 02:55:01;;;;;;;;;;;12.10;87.50;;;;;;5052803;28;19921;-64
2021/05/25 02:57:26;;;;;;;;;;;12.10;87.70;;;;;;5053315;28;20373;-64
2021/05/25 02:59:52;;;;;;;;;;;12.00;87.80;;;;;;5052878;28;19966;-64
2021/05/25 03:02:17;;;;;;;;;;;12.00;87.90;;;;;;5053097;28;19960;-64
2021/05/25 03:04:43;;;;;;;;;;;11.90;88.00;;;;;;5052097;28;19924;-64
2021/05/25 03:07:08;;;;;;;;;;;11.90;88.10;;;;;;5051732;28;19917;-64
2021/05/25 03:09:34;;;;;;;;;;;11.80;88.30;;;;;;5052803;28;19924;-64
2021/05/25 03:11:59;;;;;;;;;;;11.80;88.60;;;;;;5051394;28;19924;-64
2021/05/25 03:14:26;;;;;;;;;;;11.80;88.90;;;;;;5052307;28;19949;-64
2021/05/25 03:16:51;;;;;;;;;;;11.80;88.70;;;;;;5048212;28;19948;-67
2021/05/25 03:19:17;;;;;;;;;;;11.80;88.40;;;;;;5048952;28;20010;-67
2021/05/25 03:21:42;;;;;;;;;;;11.80;88.50;;;;;;5031664;28;19932;-66
2021/05/25 03:24:08;;;;;;;;;;;11.70;88.40;;;;;;5041411;28;20353;-67
2021/05/25 03:26:34;;;;;;;;;;;11.60;88.50;;;;;;5037957;28;19931;-67
2021/05/25 03:28:59;;;;;;;;;;;11.60;88.70;;;;;;5051041;28;19917;-67
2021/05/25 03:31:25;;;;;;;;;;;11.60;88.90;;;;;;5034582;28;19917;-67
2021/05/25 03:33:50;;;;;;;;;;;11.50;88.80;;;;;;5044358;28;19918;-67
2021/05/25 03:36:16;;;;;;;;;;;11.50;89.30;;;;;;5050969;28;19921;-67
2021/05/25 03:38:41;;;;;;;;;;;11.50;89.70;;;;;;5036881;28;19921;-67
2021/05/25 03:41:07;;;;;;;;;;;11.60;89.90;;;;;;5038427;28;19917;-67
2021/05/25 03:43:32;;;;;;;;;;;11.60;90.00;;;;;;5039387;28;19948;-67
2021/05/25 03:45:58;;;;;;;;;;;11.70;90.00;;;;;;5040200;28;19916;-67
2021/05/25 03:48:23;;;;;;;;;;;11.80;89.80;;;;;;5049471;28;20372;-67
2021/05/25 03:50:49;;;;;;;;;;;11.80;89.40;;;;;;5034842;28;19917;-67
2021/05/25 03:53:14;;;;;;;;;;;11.90;89.50;;;;;;5045870;28;19975;-67
2021/05/25 03:55:47;;;;;;;;;;;11.90;89.60;;;;;;5032561;28;20275;-67
2021/05/25 04:00:57;;;;;;;;;;;12.00;89.20;;;;;;5050849;28;19959;-67
2021/05/25 04:03:23;;;;;;;;;;;11.90;89.00;;;;;;5049927;28;19944;-68
2021/05/25 04:05:49;;;;;;;;;;;11.90;88.90;;;;;;5051869;28;20361;-67
2021/05/25 04:08:16;;;;;;;;;;;11.90;88.90;;;;;;5051535;28;19974;-67
2021/05/25 04:10:41;;;;;;;;;;;11.90;88.90;;;;;;5051705;28;19921;-67
2021/05/25 04:13:07;;;;;;;;;;;11.90;89.10;;;;;;5066516;28;19924;-67
2021/05/25 04:15:34;;;;;;;;;;;12.00;89.00;;;;;;5051026;28;20449;-67
2021/05/25 04:18:00;;;;;;;;;;;12.00;88.80;;;;;;5045785;28;20130;-67
2021/05/25 04:20:25;;;;;;;;;;;12.00;88.90;;;;;;5038839;28;19987;-68
2021/05/25 04:22:51;;;;;;;;;;;12.00;88.60;;;;;;5031371;28;19982;-67
2021/05/25 04:25:16;;;;;;;;;;;12.10;88.50;;;;;;5030559;28;19924;-67
2021/05/25 04:27:42;;;;;;;;;;;12.10;88.40;;;;;;5030064;28;19924;-68
2021/05/25 04:30:09;;;;;;;;;;;12.10;88.50;;;;;;5030816;28;20266;-68
2021/05/25 04:32:34;;;;;;;;;;;12.10;88.40;;;;;;5030515;28;19917;-68
2021/05/25 04:35:00;;;;;;;;;;;12.00;87.60;;;;;;5029371;28;19921;-68
2021/05/25 04:37:25;;;;;;;;;;;11.90;87.60;;;;;;5031495;28;19927;-67
2021/05/25 04:39:51;;;;;;;;;;;11.90;87.90;;;;;;5031050;28;20427;-67
2021/05/25 04:42:17;;;;;;;;;;;11.90;88.20;;;;;;5045517;28;19917;-68
2021/05/25 04:44:42;;;;;;;;;;;11.90;88.00;;;;;;5030970;28;20308;-68
2021/05/25 04:47:08;;;;;;;;;;;11.90;87.90;;;;;;5031053;28;19918;-68
2021/05/25 04:49:35;;;;;;;;;;;11.90;88.00;;;;;;5031820;28;19937;-67
2021/05/25 04:52:01;;;;;;;;;;;12.00;87.90;;;;;;5035358;28;20320;-68
2021/05/25 04:54:26;;;;;;;;;;;11.90;87.60;;;;;;5035197;28;19918;-67
2021/05/25 04:56:54;;;;;;;;;;;11.90;87.60;;;;;;5034108;28;20369;-68
2021/05/25 04:59:19;;;;;;;;;;;11.90;87.50;;;;;;5033895;28;19921;-67
2021/05/25 05:01:45;;;;;;;;;;;11.90;87.30;;;;;;5034331;28;20389;-68
2021/05/25 05:04:11;;;;;;;;;;;11.90;87.30;;;;;;5035207;28;20435;-67
2021/05/25 05:06:36;;;;;;;;;;;11.80;86.90;;;;;;5035281;28;19968;-68
2021/05/25 05:09:02;;;;;;;;;;;11.80;87.30;;;;;;5035629;28;19949;-68
2021/05/25 05:11:28;;;;;;;;;;;11.70;87.30;;;;;;5034625;28;20396;-68
2021/05/25 05:13:53;;;;;;;;;;;11.80;87.40;;;;;;5034632;28;19921;-67
2021/05/25 05:16:19;;;;;;;;;;;11.80;87.20;;;;;;5034019;28;19923;-67
2021/05/25 05:18:44;;;;;;;;;;;11.80;86.70;;;;;;5034668;28;19921;-68
2021/05/25 05:21:10;;;;;;;;;;;11.70;86.90;;;;;;5033700;28;20428;-67
2021/05/25 05:23:35;;;;;;;;;;;11.60;86.90;;;;;;5034358;28;20439;-68
2021/05/25 05:26:02;;;;;;;;;;;11.60;87.20;;;;;;5033137;28;20305;-67
2021/05/25 05:28:27;;;;;;;;;;;11.60;87.20;;;;;;5034851;28;19932;-67
2021/05/25 05:30:53;;;;;;;;;;;11.70;87.60;;;;;;5034387;28;19917;-67
2021/05/25 05:33:18;;;;;;;;;;;11.70;87.70;;;;;;5034390;28;20027;-67
2021/05/25 05:35:44;;;;;;;;;;;11.80;87.60;;;;;;5033740;28;19917;-68
2021/05/25 05:38:11;;;;;;;;;;;11.90;87.50;;;;;;5034412;28;19943;-68
2021/05/25 05:40:37;;;;;;;;;;;12.00;87.70;;;;;;5033307;28;20004;-67
2021/05/25 05:43:03;;;;;;;;;;;12.20;87.80;;;;;;5034085;28;19920;-67
2021/05/25 05:45:28;;;;;;;;;;;12.30;88.10;;;;;;5033350;28;20266;-68
2021/05/25 05:47:54;;;;;;;;;;;12.60;87.90;;;;;;5033420;28;19917;-68
2021/05/25 05:50:20;;;;;;;;;;;12.90;88.60;;;;;;5033922;28;19999;-67
2021/05/25 05:52:45;;;;;;;;;;;13.60;90.50;;;;;;5034585;28;19959;-68
2021/05/25 05:55:11;;;;;;;;;;;14.50;90.60;;;;;;5032651;28;19917;-68
2021/05/25 05:57:37;;;;;;;;;;;15.10;88.90;;;;;;5034226;28;19917;-67
2021/05/25 06:00:07;;;;;;;;;;;15.40;87.00;;;;;;5034291;28;19988;-68
2021/05/25 06:02:37;;;;;;;;;;;15.40;84.30;;;;;;5033931;28;19945;-68
2021/05/25 06:05:03;;;;;;;;;;;15.30;82.60;;;;;;5033918;28;19983;-68
2021/05/25 06:07:29;;;;;;;;;;;15.00;82.10;;;;;;5032934;28;19917;-67
2021/05/25 06:09:56;;;;;;;;;;;14.90;81.90;;;;;;5032388;28;20453;-68
2021/05/25 06:12:22;;;;;;;;;;;14.70;82.00;;;;;;5034390;28;19940;-67
2021/05/25 06:14:47;;;;;;;;;;;14.70;81.40;;;;;;5033390;28;20373;-66
2021/05/25 06:17:13;;;;;;;;;;;14.40;79.80;;;;;;5034091;28;19917;-67
2021/05/25 06:19:38;;;;;;;;;;;14.10;79.70;;;;;;5033806;28;19967;-68
2021/05/25 06:22:04;;;;;;;;;;;13.70;79.90;;;;;;5033619;28;19931;-69
2021/05/25 06:24:29;;;;;;;;;;;13.50;80.70;;;;;;5033389;28;19917;-70
2021/05/25 06:26:55;;;;;;;;;;;13.40;81.00;;;;;;5016206;28;19917;-70
2021/05/25 06:29:21;;;;;;;;;;;13.20;80.80;;;;;;5032237;28;20476;-70
2021/05/25 06:31:46;;;;;;;;;;;13.00;80.70;;;;;;5033803;28;20285;-68
2021/05/25 06:34:12;;;;;;;;;;;12.80;80.70;;;;;;5038996;28;20369;-68
2021/05/25 06:36:37;;;;;;;;;;;12.60;81.70;;;;;;5050669;28;20011;-68
2021/05/25 06:39:03;;;;;;;;;;;12.50;81.50;;;;;;5052216;28;20139;-72
2021/05/25 06:41:28;;;;;;;;;;;12.50;82.00;;;;;;5049365;28;19926;-68
2021/05/25 06:43:54;;;;;;;;;;;12.50;82.20;;;;;;5051032;28;19921;-68
2021/05/25 06:46:20;;;;;;;;;;;12.50;82.30;;;;;;5048515;28;19924;-68
2021/05/25 06:48:45;;;;;;;;;;;12.50;82.50;;;;;;5050774;28;20019;-68
2021/05/25 06:51:11;;;;;;;;;;;12.60;82.00;;;;;;5052964;28;19917;-68
2021/05/25 06:53:36;;;;;;;;;;;12.60;81.80;;;;;;5051976;28;20407;-68
2021/05/25 06:56:03;;;;;;;;;;;12.60;82.10;;;;;;5046975;28;20004;-67
2021/05/25 06:58:29;;;;;;;;;;;12.60;82.20;;;;;;5051475;28;20427;-67
2021/05/25 07:00:54;;;;;;;;;;;12.70;82.20;;;;;;5046905;28;19921;-68
2021/05/25 07:03:20;;;;;;;;;;;12.80;82.80;;;;;;5052339;28;19917;-68
2021/05/25 07:05:46;;;;;;;;;;;13.10;83.70;;;;;;5053021;28;19921;-67
2021/05/25 07:08:12;;;;;;;;;;;14.00;86.60;;;;;;5045843;28;19928;-68
2021/05/25 07:10:37;;;;;;;;;;;14.80;84.70;;;;;;5040609;28;19967;-68
2021/05/25 07:13:03;;;;;;;;;;;15.10;81.20;;;;;;5040858;28;19924;-67
2021/05/25 07:15:29;;;;;;;;;;;15.00;79.30;;;;;;5038088;28;19917;-69
2021/05/25 07:17:57;;;;;;;;;;;14.70;78.00;;;;;;5046763;28;19917;-68
2021/05/25 07:20:23;;;;;;;;;;;14.60;77.60;;;;;;5050724;28;19927;-68
2021/05/25 07:22:53;;;;;;;;;;;14.20;76.70;;;;;;5044861;28;19925;-68
2021/05/25 07:25:23;;;;;;;;;;;14.00;77.60;;;;;;5036093;28;19913;-69
2021/05/25 07:27:48;;;;;;;;;;;14.00;78.80;;;;;;5035922;28;19975;-69
2021/05/25 07:30:15;;;;;;;;;;;14.20;79.10;;;;;;5044159;28;19917;-64
2021/05/25 07:32:41;;;;;;;;;;;14.30;78.40;;;;;;5040982;28;19928;-63
2021/05/25 07:35:07;;;;;;;;;;;14.50;78.30;;;;;;5033687;28;19956;-63
2021/05/25 07:37:33;;;;;;;;;;;14.80;78.20;;;;;;5046921;28;19963;-63
2021/05/25 07:39:58;;;;;;;;;;;15.00;77.50;;;;;;5035472;28;19959;-63
2021/05/25 07:42:25;;;;;;;;;;;15.00;76.00;;;;;;5045543;28;19917;-63
2021/05/25 07:44:52;;;;;;;;;;;14.90;74.90;;;;;;5040255;28;19947;-63
2021/05/25 07:47:18;;;;;;;;;;;14.60;75.00;;;;;;5040403;28;19935;-63
2021/05/25 07:49:44;;;;;;;;;;;14.50;75.00;;;;;;5051096;28;20293;-64
2021/05/25 07:52:10;;;;;;;;;;;14.50;75.60;;;;;;5047683;28;19925;-63
2021/05/25 07:54:35;;;;;;;;;;;14.90;77.00;;;;;;5030401;28;19917;-63
2021/05/25 07:57:01;;;;;;;;;;;15.30;75.90;;;;;;5040356;28;19955;-63
2021/05/25 07:59:27;;;;;;;;;;;15.50;73.90;;;;;;5049838;28;19921;-63
2021/05/25 08:01:55;;;;;;;;;;;15.60;74.50;;;;;;5045891;28;20213;-63
2021/05/25 08:04:20;;;;;;;;;;;15.80;73.30;;;;;;5047516;28;21171;-63
2021/05/25 08:06:46;;;;;;;;;;;16.10;73.40;;;;;;5045427;28;19929;-65
2021/05/25 08:09:12;;;;;;;;;;;18.20;81.50;;;;;;5039316;28;20024;-64
2021/05/25 08:11:38;;;;;;;;;;;20.20;78.40;;;;;;5041845;28;20004;-65
2021/05/25 08:14:05;;;;;;;;;;;22.20;74.50;;;;;;5041221;28;19916;-65
2021/05/25 08:16:33;;;;;;;;;;;22.90;66.60;;;;;;5042507;28;19917;-65
2021/05/25 08:21:57;;;;;;;;;;;22.90;63.80;;;;;;5024357;28;20019;-66
2021/05/25 08:24:22;;;;;;;;;;;22.60;57.70;;;;;;5030759;28;19955;-66
2021/05/25 08:26:48;;;;;;;;;;;22.10;56.20;;;;;;5037103;28;20308;-66
2021/05/25 08:29:14;;;;;;;;;;;22.20;56.60;;;;;;5037910;28;19917;-66
2021/05/25 08:31:40;;;;;;;;;;;22.70;56.30;;;;;;5040218;28;19968;-66
2021/05/25 08:34:06;;;;;;;;;;;23.00;54.20;;;;;;5036616;28;19948;-66
2021/05/25 08:36:32;;;;;;;;;;;23.90;56.50;;;;;;5039122;28;20389;-65
2021/05/25 08:38:58;;;;;;;;;;;24.30;51.80;;;;;;5027036;28;20380;-67
2021/05/25 08:41:24;;;;;;;;;;;23.60;47.80;;;;;;5032081;28;19924;-66
2021/05/25 08:43:50;;;;;;;;;;;22.10;46.60;;;;;;5033596;28;20399;-65
2021/05/25 08:46:16;;;;;;;;;;;20.70;47.60;;;;;;5042271;28;19952;-65
2021/05/25 08:48:42;;;;;;;;;;;19.30;48.00;;;;;;5049716;28;19921;-64
2021/05/25 08:51:08;;;;;;;;;;;18.20;49.70;;;;;;5062868;28;20012;-65
2021/05/25 08:53:34;;;;;;;;;;;17.40;51.60;;;;;;5046489;28;19923;-64
2021/05/25 08:56:01;;;;;;;;;;;16.90;52.60;;;;;;5034195;28;19917;-65
2021/05/25 08:58:27;;;;;;;;;;;16.60;53.50;;;;;;5041064;28;19917;-65
2021/05/25 09:00:54;;;;;;;;;;;16.60;54.80;;;;;;5045508;28;19916;-63
2021/05/25 09:03:20;;;;;;;;;;;17.00;56.20;;;;;;5047044;28;20301;-64
2021/05/25 09:05:55;;;;;;;;;;;18.10;58.40;;;;;;5037598;28;19927;-65
2021/05/25 09:08:21;;;;;;;;;;;19.70;57.30;;;;;;5042317;28;19917;-65
2021/05/25 09:10:47;;;;;;;;;;;20.00;52.90;;;;;;5049069;28;19925;-64
2021/05/25 09:13:15;;;;;;;;;;;19.60;50.40;;;;;;5032069;28;20539;-64
2021/05/25 09:15:46;;;;;;;;;;;19.00;51.20;;;;;;5049231;28;20331;-64
2021/05/25 09:18:13;;;;;;;;;;;19.00;52.80;;;;;;5051027;28;19970;-63
2021/05/25 09:20:42;;;;;;;;;;;18.90;51.70;;;;;;5050831;28;19917;-63
2021/05/25 09:23:08;;;;;;;;;;;18.40;50.90;;;;;;5049976;28;19964;-63
2021/05/25 09:25:34;;;;;;;;;;;17.80;51.30;;;;;;5050923;28;19916;-63
2021/05/25 09:28:08;;;;;;;;;;;17.20;51.70;;;;;;5043700;28;19952;-63
2021/05/25 09:30:34;;;;;;;;;;;16.70;52.40;;;;;;5040702;28;19927;-63
2021/05/25 09:33:05;;;;;;;;;;;16.30;53.50;;;;;;5034288;28;19944;-63
2021/05/25 09:35:35;;;;;;;;;;;15.90;53.90;;;;;;5045816;28;20293;-65
2021/05/25 09:38:06;;;;;;;;;;;15.60;55.10;;;;;;5042020;28;19981;-63
2021/05/25 09:40:32;;;;;;;;;;;15.40;56.40;;;;;;5046193;28;19924;-63
2021/05/25 09:43:10;;;;;;;;;;;15.50;57.30;;;;;;5038741;28;20393;-63
2021/05/25 09:45:36;;;;;;;;;;;15.80;57.90;;;;;;5050055;28;19928;-63
2021/05/25 09:48:05;;;;;;;;;;;16.20;58.30;;;;;;5054657;28;19917;-63
2021/05/25 09:50:31;;;;;;;;;;;16.70;58.10;;;;;;5052825;28;19996;-65
2021/05/25 09:53:21;;;;;;;;;;;17.30;58.80;;;;;;5049675;28;19975;-64
2021/05/25 09:55:51;;;;;;;;;;;18.30;58.70;;;;;;5038065;28;19917;-65
2021/05/25 09:58:18;;;;;;;;;;;19.80;58.10;;;;;;5038181;28;20296;-65
2021/05/25 10:00:46;;;;;;;;;;;21.00;55.70;;;;;;5044201;28;19960;-64
2021/05/25 10:03:16;;;;;;;;;;;21.80;53.90;;;;;;5032820;28;19921;-64
2021/05/25 10:05:44;;;;;;;;;;;22.30;51.20;;;;;;5033556;28;19917;-67
2021/05/25 10:08:14;;;;;;;;;;;23.70;52.10;;;;;;5032683;28;19918;-68
2021/05/25 10:10:40;;;;;;;;;;;26.10;51.90;;;;;;5032641;28;19921;-66
2021/05/25 10:13:06;;;;;;;;;;;25.70;44.90;;;;;;5031026;28;19917;-66
2021/05/25 10:15:32;;;;;;;;;;;23.90;42.30;;;;;;5014894;28;19917;-64
2021/05/25 10:20:24;;;;;;;;;;;20.20;44.30;;;;;;5033299;28;19948;-66
2021/05/25 10:22:50;;;;;;;;;;;18.60;45.50;;;;;;5033358;28;20408;-65
2021/05/25 10:25:16;;;;;;;;;;;17.50;47.50;;;;;;5037549;28;19921;-63
2021/05/25 10:27:45;;;;;;;;;;;16.50;49.10;;;;;;5044156;28;19987;-62
2021/05/25 10:30:23;;;;;;;;;;;15.80;50.90;;;;;;5041233;28;20062;-62
2021/05/25 10:32:49;;;;;;;;;;;15.30;52.80;;;;;;5044319;28;19924;-63
2021/05/25 10:35:18;;;;;;;;;;;15.10;54.20;;;;;;5085794;28;19913;-63
2021/05/25 10:38:03;;;;;;;;;;;15.10;54.90;;;;;;5053393;28;19924;-63
2021/05/25 10:40:39;;;;;;;;;;;15.10;55.50;;;;;;5053782;28;19925;-63
2021/05/25 10:43:40;;;;;;;;;;;15.00;56.30;;;;;;5052410;28;20468;-63
2021/05/25 10:46:12;;;;;;;;;;;15.00;56.50;;;;;;5010869;28;20386;-63
2021/05/25 10:49:05;;;;;;;;;;;15.00;56.50;;;;;;5045144;28;20296;-63
2021/05/25 10:51:46;;;;;;;;;;;14.90;57.20;;;;;;5051589;28;20000;-63
2021/05/25 10:54:23;;;;;;;;;;;14.80;58.30;;;;;;5034517;28;19921;-62
2021/05/25 10:56:49;;;;;;;;;;;14.80;58.50;;;;;;5032076;28;19968;-63
2021/05/25 10:59:16;;;;;;;;;;;14.90;59.40;;;;;;5033332;28;20313;-63
2021/05/25 11:01:42;;;;;;;;;;;15.70;61.50;;;;;;5031482;28;19917;-67
2021/05/25 11:04:09;;;;;;;;;;;17.50;63.30;;;;;;5032648;28;19971;-66
2021/05/25 11:06:35;;;;;;;;;;;20.40;63.60;;;;;;5033052;28;19917;-66
2021/05/25 11:09:19;;;;;;;;;;;23.10;60.40;;;;;;5032582;28;19924;-66
2021/05/25 11:11:44;;;;;;;;;;;24.10;55.00;;;;;;5032955;28;19921;-66
2021/05/25 11:14:12;;;;;;;;;;;23.50;50.30;;;;;;5031744;28;20362;-66
2021/05/25 11:16:39;;;;;;;;;;;22.30;48.50;;;;;;5034121;28;19928;-65
2021/05/25 11:19:06;;;;;;;;;;;21.10;48.30;;;;;;5028100;28;19925;-65
2021/05/25 11:22:23;;;;;;;;;;;19.80;49.40;;;;;;5046911;28;20475;-66
2021/05/25 11:24:34;;;;;;;;;;;18.80;50.20;;;;;;5040147;28;19917;-64
2021/05/25 11:27:06;;;;;;;;;;;18.10;52.30;;;;;;5051063;28;19917;-66
2021/05/25 11:29:33;;;;;;;;;;;18.80;55.70;;;;;;5052343;28;19917;-66
2021/05/25 11:32:03;;;;;;;;;;;20.50;56.20;;;;;;5084649;28;19913;-67
2021/05/25 11:34:28;;;;;;;;;;;22.10;53.10;;;;;;5051398;28;20400;-67
2021/05/25 11:36:59;;;;;;;;;;;23.30;50.80;;;;;;5044275;28;19956;-66
2021/05/25 11:39:25;;;;;;;;;;;24.10;48.40;;;;;;5049027;28;19929;-66
2021/05/25 11:41:51;;;;;;;;;;;24.70;46.60;;;;;;5051346;28;19916;-65
2021/05/25 11:44:19;;;;;;;;;;;24.80;45.20;;;;;;5047087;28;19932;-64
2021/05/25 11:46:46;;;;;;;;;;;25.00;45.30;;;;;;5041256;28;19921;-66
2021/05/25 11:49:12;;;;;;;;;;;25.00;43.20;;;;;;5051030;28;20000;-65
2021/05/25 11:51:38;;;;;;;;;;;24.50;41.90;;;;;;5046064;28;20543;-65
2021/05/25 11:54:06;;;;;;;;;;;23.60;42.00;;;;;;5046052;28;19917;-64
2021/05/25 11:56:32;;;;;;;;;;;22.80;42.40;;;;;;5034416;28;20317;-65
2021/05/25 11:58:58;;;;;;;;;;;22.00;43.10;;;;;;5029001;28;19925;-65
2021/05/25 12:01:37;;;;;;;;;;;21.80;43.70;;;;;;5048350;28;19921;-64
2021/05/25 12:04:06;;;;;;;;;;;21.70;44.00;;;;;;5038223;28;19939;-64
2021/05/25 12:06:32;;;;;;;;;;;21.80;44.80;;;;;;5026976;28;19924;-64
2021/05/25 12:09:08;;;;;;;;;;;21.60;43.30;;;;;;5057789;28;19916;-64
2021/05/25 12:11:34;;;;;;;;;;;21.70;43.80;;;;;;5040556;28;19921;-64
2021/05/25 12:14:00;;;;;;;;;;;21.90;43.70;;;;;;5029394;28;19924;-64
2021/05/25 12:16:26;;;;;;;;;;;22.20;43.20;;;;;;5038597;28;20402;-64
2021/05/25 12:18:52;;;;;;;;;;;22.50;43.10;;;;;;5040758;28;20020;-64
2021/05/25 12:21:17;;;;;;;;;;;22.40;41.70;;;;;;5046844;28;19917;-64
2021/05/25 12:23:44;;;;;;;;;;;22.10;41.60;;;;;;5037064;28;20008;-64
2021/05/25 12:26:11;;;;;;;;;;;21.90;41.50;;;;;;5035317;28;19940;-63
2021/05/25 12:28:39;;;;;;;;;;;21.30;40.90;;;;;;5046067;28;20321;-65
2021/05/25 12:31:05;;;;;;;;;;;20.60;41.00;;;;;;5044414;28;19920;-65
2021/05/25 12:33:32;;;;;;;;;;;19.70;42.60;;;;;;5049989;28;19913;-64
2021/05/25 12:36:16;;;;;;;;;;;19.40;44.60;;;;;;5037746;28;19950;-65
2021/05/25 12:38:55;;;;;;;;;;;19.80;46.10;;;;;;5030866;28;20396;-66
2021/05/25 12:41:20;;;;;;;;;;;20.00;45.00;;;;;;5030512;28;19939;-65
2021/05/25 12:43:46;;;;;;;;;;;20.20;45.10;;;;;;5041483;28;19917;-65
2021/05/25 12:46:12;;;;;;;;;;;20.00;43.90;;;;;;5036246;28;19940;-66
2021/05/25 12:48:38;;;;;;;;;;;19.60;44.50;;;;;;5032843;28;20282;-64
2021/05/25 12:51:05;;;;;;;;;;;19.20;44.60;;;;;;5043644;28;19924;-66
2021/05/25 12:53:31;;;;;;;;;;;19.10;46.10;;;;;;5029897;28;19913;-65
2021/05/25 12:56:02;;;;;;;;;;;19.20;46.50;;;;;;5043152;28;19920;-64
2021/05/25 12:58:37;;;;;;;;;;;19.30;46.50;;;;;;5034710;28;19921;-65
2021/05/25 13:01:18;;;;;;;;;;;19.10;45.30;;;;;;5048812;28;19917;-66
2021/05/25 13:03:43;;;;;;;;;;;18.50;45.10;;;;;;5031277;28;20002;-65
2021/05/25 13:06:11;;;;;;;;;;;18.10;46.90;;;;;;5030933;28;19960;-65
2021/05/25 13:08:37;;;;;;;;;;;18.10;47.20;;;;;;5039817;28;20058;-64
2021/05/25 13:11:06;;;;;;;;;;;18.00;46.80;;;;;;5051964;28;19948;-65
2021/05/25 13:13:37;;;;;;;;;;;17.90;47.20;;;;;;5053630;28;20354;-66
2021/05/25 13:16:02;;;;;;;;;;;17.90;47.30;;;;;;5037869;28;19923;-65
2021/05/25 13:18:39;;;;;;;;;;;17.80;47.80;;;;;;5053493;28;19913;-65
2021/05/25 13:21:07;;;;;;;;;;;17.60;47.30;;;;;;5054257;28;19916;-65
2021/05/25 13:23:33;;;;;;;;;;;17.20;47.80;;;;;;5053658;28;19955;-65
2021/05/25 13:28:54;;;;;;;;;;;16.60;48.80;;;;;;5048287;28;19928;-65
2021/05/25 13:31:24;;;;;;;;;;;16.30;49.40;;;;;;5065820;28;19917;-64
2021/05/25 13:33:50;;;;;;;;;;;16.10;50.50;;;;;;5021535;28;19920;-64
2021/05/25 13:36:17;;;;;;;;;;;16.00;51.90;;;;;;5055041;28;19913;-64
2021/05/25 13:38:44;;;;;;;;;;;16.00;52.50;;;;;;5053303;28;19931;-64
2021/05/25 13:41:10;;;;;;;;;;;16.10;53.20;;;;;;5056472;28;19962;-64
2021/05/25 13:43:36;;;;;;;;;;;16.20;53.40;;;;;;5036160;28;20361;-63
2021/05/25 13:46:03;;;;;;;;;;;16.20;53.60;;;;;;5054136;28;19944;-64
2021/05/25 13:48:29;;;;;;;;;;;16.20;53.70;;;;;;5054457;28;19917;-64
2021/05/25 13:50:55;;;;;;;;;;;16.20;53.80;;;;;;5068997;28;19963;-64
2021/05/25 13:53:20;;;;;;;;;;;16.20;54.30;;;;;;5051855;28;19916;-65
2021/05/25 13:55:46;;;;;;;;;;;16.20;54.60;;;;;;5053689;28;19928;-65
2021/05/25 13:58:14;;;;;;;;;;;16.30;54.90;;;;;;5053518;28;19920;-65
2021/05/25 14:03:05;;;;;;;;;;;16.50;55.50;;;;;;5049086;28;19923;-66
2021/05/25 14:05:31;;;;;;;;;;;16.70;55.70;;;;;;5051054;28;20003;-66
2021/05/25 14:07:57;;;;;;;;;;;17.10;55.80;;;;;;5050164;28;19963;-66
2021/05/25 14:10:23;;;;;;;;;;;17.50;55.70;;;;;;5051149;28;20007;-64
2021/05/25 14:12:48;;;;;;;;;;;17.70;54.40;;;;;;5052751;28;19917;-64
2021/05/25 14:15:14;;;;;;;;;;;17.80;54.20;;;;;;5029813;28;20401;-64
2021/05/25 14:17:40;;;;;;;;;;;17.90;54.30;;;;;;5052555;28;19944;-64
2021/05/25 14:20:06;;;;;;;;;;;18.00;54.30;;;;;;5042599;28;19936;-65
2021/05/25 14:22:31;;;;;;;;;;;18.10;54.30;;;;;;5050768;28;19913;-65
2021/05/25 14:24:57;;;;;;;;;;;18.10;53.50;;;;;;5045957;28;19921;-64
2021/05/25 14:27:22;;;;;;;;;;;17.80;53.00;;;;;;5044266;28;19971;-64
2021/05/25 14:29:49;;;;;;;;;;;17.50;53.00;;;;;;5046364;28;19970;-64